Time;durP1;ratioP1;P1;durP2;ratioP2;P2;SDS_P1;SDS_P2;PMS_P1;PMS_P2;Temp;Humidity;BMP_temperature;BMP_pressure;BME280_temperature;BME280_humidity;BME280_pressure;Samples;Min_cycle;Max_cycle;Signal;HPM_P1;HPM_P2
2022/09/14 00:01:24;;;;;;;3.10;1.08;;;19.40;82.70;;;;;;5080196;28;20040;-86
2022/09/14 00:04:02;;;;;;;4.15;1.20;;;19.50;82.90;;;;;;5071918;28;20036;-89
2022/09/14 00:06:31;;;;;;;5.95;1.73;;;19.50;82.90;;;;;;5065510;28;20017;-86
2022/09/14 00:09:01;;;;;;;4.72;1.20;;;19.40;83.00;;;;;;5062333;28;20040;-85
2022/09/14 00:11:29;;;;;;;6.22;1.83;;;19.40;83.00;;;;;;5057775;28;20107;-87
2022/09/14 00:14:02;;;;;;;4.43;1.23;;;19.40;83.10;;;;;;5039457;28;20067;-85
2022/09/14 00:16:35;;;;;;;5.93;1.33;;;19.40;83.40;;;;;;5038741;28;20040;-87
2022/09/14 00:19:05;;;;;;;9.77;1.63;;;19.40;83.50;;;;;;5038798;28;20029;-85
2022/09/14 00:21:35;;;;;;;4.60;1.70;;;19.50;83.50;;;;;;5056860;28;20028;-86
2022/09/14 00:24:03;;;;;;;2.72;1.10;;;19.40;83.50;;;;;;5039467;28;20036;-85
2022/09/14 00:26:29;;;;;;;3.03;1.25;;;19.40;83.50;;;;;;5039886;28;20106;-86
2022/09/14 00:28:58;;;;;;;3.85;1.13;;;19.40;83.50;;;;;;5039509;28;20025;-87
2022/09/14 00:31:25;;;;;;;4.72;1.17;;;19.50;84.10;;;;;;5074816;28;20082;-85
2022/09/14 00:33:56;;;;;;;4.97;1.48;;;19.40;83.50;;;;;;5043343;28;20032;-87
2022/09/14 00:36:27;;;;;;;4.72;1.40;;;19.50;83.80;;;;;;5061573;28;20033;-86
2022/09/14 00:38:59;;;;;;;4.90;1.48;;;19.50;83.90;;;;;;5060979;28;20024;-87
2022/09/14 00:41:32;;;;;;;3.80;1.27;;;19.40;83.80;;;;;;5055599;28;20049;-85
2022/09/14 00:44:12;;;;;;;4.82;1.25;;;19.40;84.00;;;;;;5049786;28;20112;-85
2022/09/14 00:46:46;;;;;;;4.70;1.42;;;19.40;83.90;;;;;;5040869;28;20045;-86
2022/09/14 00:49:24;;;;;;;4.05;1.02;;;19.40;83.80;;;;;;5040831;28;20409;-85
2022/09/14 00:52:08;;;;;;;3.20;1.55;;;19.40;83.80;;;;;;5040299;28;20036;-84
2022/09/14 00:54:40;;;;;;;3.33;1.38;;;19.40;84.00;;;;;;5038669;28;20127;-87
2022/09/14 00:57:06;;;;;;;3.22;1.13;;;19.40;84.00;;;;;;5039464;28;20113;-85
2022/09/14 00:59:38;;;;;;;6.15;1.52;;;19.30;83.90;;;;;;5039299;28;20021;-84
2022/09/14 01:02:10;;;;;;;5.25;1.38;;;19.40;84.00;;;;;;5042682;28;20079;-86
2022/09/14 01:04:36;;;;;;;4.38;1.27;;;19.40;83.90;;;;;;5041891;28;20026;-85
2022/09/14 01:07:25;;;;;;;4.95;1.42;;;19.40;83.80;;;;;;5041044;28;20029;-84
2022/09/14 01:09:57;;;;;;;4.88;1.40;;;19.40;83.70;;;;;;5041076;28;20033;-85
2022/09/14 01:12:43;;;;;;;4.75;1.33;;;19.40;83.60;;;;;;5042763;28;20030;-85
2022/09/14 01:15:33;;;;;;;4.00;1.45;;;19.30;83.70;;;;;;5043188;28;20100;-85
2022/09/14 01:18:39;;;;;;;6.00;1.20;;;19.30;83.80;;;;;;5061597;28;20048;-84
2022/09/14 01:21:30;;;;;;;5.13;1.48;;;19.20;83.90;;;;;;5029767;28;20101;-84
2022/09/14 01:24:22;;;;;;;4.63;1.40;;;19.20;83.90;;;;;;5046652;28;20469;-85
2022/09/14 01:27:39;;;;;;;4.30;1.58;;;19.20;84.00;;;;;;5046439;28;20021;-84
2022/09/14 01:30:18;;;;;;;5.75;1.77;;;19.20;84.00;;;;;;5062516;28;20040;-85
2022/09/14 01:33:10;;;;;;;4.75;1.75;;;19.20;84.00;;;;;;5059500;28;20509;-85
2022/09/14 01:36:04;;;;;;;5.60;1.80;;;19.20;84.00;;;;;;5066290;28;20168;-87
2022/09/14 01:38:39;;;;;;;5.88;1.50;;;19.20;84.00;;;;;;5066065;28;20031;-85
2022/09/14 01:41:12;;;;;;;4.20;1.35;;;19.20;84.00;;;;;;5050722;28;20037;-85
2022/09/14 01:43:42;;;;;;;5.45;1.58;;;19.20;84.00;;;;;;5062255;28;20025;-87
2022/09/14 01:46:17;;;;;;;3.88;1.27;;;19.20;84.00;;;;;;5049512;28;20043;-85
2022/09/14 01:49:21;;;;;;;3.28;1.10;;;19.10;83.90;;;;;;5048861;28;20111;-85
2022/09/14 01:52:22;;;;;;;4.07;1.42;;;19.10;83.90;;;;;;5044023;28;20037;-84
2022/09/14 01:54:47;;;;;;;4.03;0.95;;;19.10;83.90;;;;;;5043418;28;20029;-85
2022/09/14 01:57:24;;;;;;;5.40;1.48;;;19.10;83.90;;;;;;5084257;28;20029;-85
2022/09/14 01:59:55;;;;;;;5.65;1.33;;;19.10;83.90;;;;;;5078402;28;20014;-83
2022/09/14 02:02:54;;;;;;;3.15;1.10;;;19.10;83.80;;;;;;5081372;28;20080;-86
2022/09/14 02:05:56;;;;;;;5.05;1.40;;;19.10;83.80;;;;;;5095320;28;20044;-86
2022/09/14 02:08:26;;;;;;;3.35;0.75;;;19.10;83.70;;;;;;5058035;28;20044;-86
2022/09/14 02:10:52;;;;;;;3.10;0.80;;;19.10;83.60;;;;;;5045575;28;20021;-86
2022/09/14 02:13:18;;;;;;;5.40;1.30;;;19.10;83.60;;;;;;5028817;28;20021;-85
2022/09/14 02:15:44;;;;;;;4.68;1.17;;;19.10;83.60;;;;;;5028562;28;20022;-85
2022/09/14 02:18:13;;;;;;;3.78;0.95;;;19.10;83.40;;;;;;5042642;28;20036;-86
2022/09/14 02:21:03;;;;;;;2.20;0.90;;;19.00;83.40;;;;;;5038807;28;20085;-85
2022/09/14 02:23:29;;;;;;;2.15;0.95;;;19.00;83.50;;;;;;5036898;28;20044;-86
2022/09/14 02:25:55;;;;;;;2.90;0.98;;;19.10;83.40;;;;;;5037607;28;20032;-84
2022/09/14 02:28:26;;;;;;;6.90;1.30;;;19.10;83.50;;;;;;5037844;28;20040;-85
2022/09/14 02:31:05;;;;;;;;;;;19.10;83.40;;;;;;5038512;28;20449;-85
2022/09/14 02:33:44;;;;;;;2.78;1.08;;;19.10;83.30;;;;;;5044825;28;19912;-85
2022/09/14 02:36:22;;;;;;;2.88;0.80;;;19.10;83.30;;;;;;5040955;28;20124;-87
2022/09/14 02:39:19;;;;;;;3.30;0.80;;;19.10;83.40;;;;;;5058171;28;20028;-86
2022/09/14 02:41:55;;;;;;;3.05;1.00;;;19.20;83.50;;;;;;5074308;28;20052;-86
2022/09/14 02:44:30;;;;;;;3.38;0.88;;;19.10;83.30;;;;;;5057344;28;20032;-86
2022/09/14 02:47:14;;;;;;;3.38;1.10;;;19.10;83.50;;;;;;5039541;28;20027;-85
2022/09/14 02:49:42;;;;;;;4.45;1.05;;;19.10;83.70;;;;;;5037376;28;20025;-86
2022/09/14 02:52:33;;;;;;;3.72;0.65;;;19.10;83.80;;;;;;5036953;28;20036;-88
2022/09/14 02:55:14;;;;;;;3.33;0.73;;;19.20;84.20;;;;;;5021054;28;20377;-86
2022/09/14 02:57:59;;;;;;;2.58;0.82;;;19.20;84.00;;;;;;5037889;28;20621;-85
2022/09/14 03:00:28;;;;;;;1.95;0.85;;;19.20;84.10;;;;;;5036366;28;20445;-83
2022/09/14 03:02:58;;;;;;;2.83;1.00;;;19.10;84.40;;;;;;5021002;28;20032;-84
2022/09/14 03:05:27;;;;;;;3.80;1.10;;;19.10;84.90;;;;;;5040526;28;20029;-85
2022/09/14 03:07:53;;;;;;;2.42;0.80;;;19.10;85.10;;;;;;5059065;28;20029;-85
2022/09/14 03:10:19;;;;;;;3.83;1.13;;;19.20;85.40;;;;;;5043753;28;20033;-86
2022/09/14 03:12:45;;;;;;;4.03;0.90;;;19.10;85.40;;;;;;5061260;28;20384;-85
2022/09/14 03:15:15;;;;;;;3.47;1.20;;;19.10;85.60;;;;;;5060535;28;20071;-86
2022/09/14 03:17:46;;;;;;;;;;;19.00;85.90;;;;;;5061342;28;20120;-85
2022/09/14 03:20:16;;;;;;;5.05;0.80;;;19.00;85.90;;;;;;5060737;28;19919;-86
2022/09/14 03:22:47;;;;;;;5.18;0.95;;;19.00;86.00;;;;;;5042340;28;20032;-84
2022/09/14 03:25:13;;;;;;;1.65;0.68;;;18.90;86.20;;;;;;5044560;28;20036;-86
2022/09/14 03:27:40;;;;;;;2.53;1.00;;;18.80;86.40;;;;;;5043849;28;20021;-85
2022/09/14 03:30:15;;;;;;;2.25;0.90;;;18.80;87.00;;;;;;5078011;28;20022;-86
2022/09/14 03:32:49;;;;;;;4.47;1.08;;;18.80;87.30;;;;;;5060306;28;20029;-85
2022/09/14 03:35:18;;;;;;;4.60;0.90;;;18.70;87.40;;;;;;5056201;28;20111;-86
2022/09/14 03:37:45;;;;;;;4.53;0.93;;;18.70;87.50;;;;;;5043982;28;20021;-85
2022/09/14 03:40:18;;;;;;;5.10;1.45;;;18.70;87.30;;;;;;5059761;28;20029;-86
2022/09/14 03:42:57;;;;;;;2.75;0.85;;;18.60;87.40;;;;;;5060729;28;20044;-85
2022/09/14 03:45:22;;;;;;;3.70;1.00;;;18.60;87.50;;;;;;5060991;28;20071;-85
2022/09/14 03:48:07;;;;;;;3.70;1.40;;;18.70;87.60;;;;;;5045687;28;20021;-85
2022/09/14 03:50:33;;;;;;;2.95;0.90;;;18.70;87.80;;;;;;5061980;28;20024;-86
2022/09/14 03:53:03;;;;;;;3.80;1.00;;;18.60;88.00;;;;;;5063833;28;20033;-87
2022/09/14 03:55:29;;;;;;;4.90;1.30;;;18.70;88.10;;;;;;5047578;28;20040;-86
2022/09/14 03:58:00;;;;;;;3.13;1.00;;;18.70;88.10;;;;;;5063582;28;20017;-86
2022/09/14 04:00:28;;;;;;;3.30;1.08;;;18.70;88.10;;;;;;5065659;28;20033;-86
2022/09/14 04:02:54;;;;;;;2.28;0.80;;;18.70;88.30;;;;;;5060898;28;20016;-87
2022/09/14 04:05:20;;;;;;;4.32;1.00;;;18.70;88.50;;;;;;5049270;28;20029;-85
2022/09/14 04:07:46;;;;;;;4.20;0.82;;;18.70;88.40;;;;;;5039846;28;20028;-85
2022/09/14 04:10:12;;;;;;;3.67;1.05;;;18.70;88.30;;;;;;5039412;28;20124;-85
2022/09/14 04:12:38;;;;;;;2.83;1.00;;;18.70;88.60;;;;;;5039806;28;20090;-84
2022/09/14 04:15:08;;;;;;;5.78;1.65;;;18.70;88.90;;;;;;5039151;28;20175;-86
2022/09/14 04:17:39;;;;;;;3.10;1.13;;;18.80;89.10;;;;;;5039515;28;20120;-86
2022/09/14 04:20:10;;;;;;;4.30;1.10;;;18.80;89.20;;;;;;5039285;28;20064;-86
2022/09/14 04:22:39;;;;;;;2.50;0.70;;;18.80;89.20;;;;;;5052194;28;20028;-85
2022/09/14 04:25:05;;;;;;;2.80;0.98;;;18.80;89.80;;;;;;5042528;28;20040;-86
2022/09/14 04:27:33;;;;;;;2.95;1.17;;;18.80;89.20;;;;;;5059325;28;20021;-86
2022/09/14 04:29:59;;;;;;;3.97;1.10;;;18.80;89.30;;;;;;5042753;28;20036;-84
2022/09/14 04:32:27;;;;;;;2.70;0.90;;;18.80;89.60;;;;;;5042677;28;20040;-87
2022/09/14 04:35:00;;;;;;;5.03;0.90;;;18.80;89.80;;;;;;5057232;28;20020;-87
2022/09/14 04:37:32;;;;;;;3.10;1.15;;;18.80;90.00;;;;;;5038636;28;20033;-86
2022/09/14 04:40:03;;;;;;;2.97;1.23;;;18.80;90.10;;;;;;5039167;28;20546;-86
2022/09/14 04:42:33;;;;;;;3.53;1.27;;;18.80;90.20;;;;;;5039146;28;20053;-85
2022/09/14 04:45:01;;;;;;;2.85;1.13;;;18.80;90.20;;;;;;5039419;28;20384;-86
2022/09/14 04:47:40;;;;;;;;;;;;;;;;;;;;;
2022/09/14 04:50:20;;;;;;;3.50;1.23;;;18.80;90.00;;;;;;5041249;28;20035;-87
2022/09/14 04:52:50;;;;;;;;;;;18.80;90.00;;;;;;5057805;28;20033;-86
2022/09/14 04:58:13;;;;;;;3.38;1.20;;;18.70;90.00;;;;;;5046036;28;20021;-87
2022/09/14 05:00:39;;;;;;;1.50;1.10;;;18.70;90.00;;;;;;5056092;28;20031;-85
2022/09/14 05:03:22;;;;;;;5.32;1.42;;;18.60;89.90;;;;;;5057361;28;20043;-86
2022/09/14 05:06:18;;;;;;;5.38;2.03;;;18.60;90.00;;;;;;5040234;28;20132;-86
2022/09/14 05:08:45;;;;;;;4.30;1.45;;;18.60;89.90;;;;;;5038858;28;20052;-85
2022/09/14 05:11:15;;;;;;;3.97;1.75;;;18.60;90.20;;;;;;5021080;28;20094;-81
2022/09/14 05:13:41;;;;;;;3.03;1.33;;;18.60;90.00;;;;;;5055781;28;20423;-82
2022/09/14 05:16:08;;;;;;;4.65;1.38;;;18.60;90.10;;;;;;5041571;28;20130;-84
2022/09/14 05:18:37;;;;;;;3.30;1.13;;;18.60;90.30;;;;;;5058567;28;20027;-85
2022/09/14 05:21:11;;;;;;;5.22;1.80;;;18.60;90.30;;;;;;5025330;28;20170;-85
2022/09/14 05:23:41;;;;;;;3.95;1.30;;;18.60;90.40;;;;;;5056585;28;20408;-85
2022/09/14 05:26:12;;;;;;;5.70;1.45;;;18.60;90.40;;;;;;5057841;28;20031;-84
2022/09/14 05:28:41;;;;;;;2.90;1.30;;;18.60;90.50;;;;;;5058525;28;20488;-84
2022/09/14 05:31:11;;;;;;;6.78;1.60;;;18.60;90.60;;;;;;5058099;28;20094;-87
2022/09/14 05:33:37;;;;;;;3.05;1.50;;;18.60;90.70;;;;;;5058484;28;20027;-84
2022/09/14 05:36:07;;;;;;;2.40;1.17;;;18.60;90.70;;;;;;5041923;28;20115;-84
2022/09/14 05:38:35;;;;;;;4.63;1.38;;;18.60;90.80;;;;;;5045833;28;20029;-86
2022/09/14 05:41:01;;;;;;;5.20;1.70;;;18.50;90.80;;;;;;5047174;28;20035;-83
2022/09/14 05:43:30;;;;;;;3.38;1.30;;;18.60;90.80;;;;;;5073907;28;20048;-84
2022/09/14 05:46:05;;;;;;;6.55;1.90;;;18.50;90.80;;;;;;5064849;28;20751;-85
2022/09/14 05:48:34;;;;;;;4.80;1.67;;;18.50;90.80;;;;;;5066315;28;20097;-84
2022/09/14 05:51:10;;;;;;;4.78;1.77;;;18.40;90.70;;;;;;5069865;28;20028;-85
2022/09/14 05:53:37;;;;;;;2.92;1.58;;;18.40;90.70;;;;;;5041180;28;20037;-83
2022/09/14 05:56:14;;;;;;;6.07;2.28;;;18.40;90.80;;;;;;5021748;28;20029;-85
2022/09/14 05:58:46;;;;;;;5.57;1.90;;;18.40;90.90;;;;;;5022521;28;20029;-83
2022/09/14 06:01:17;;;;;;;3.78;1.63;;;18.40;90.80;;;;;;5038680;28;20036;-84
2022/09/14 06:03:44;;;;;;;3.22;1.45;;;18.30;90.80;;;;;;5057332;28;20399;-84
2022/09/14 06:06:12;;;;;;;4.82;1.65;;;18.40;90.80;;;;;;5075706;28;20020;-84
2022/09/14 06:08:39;;;;;;;4.32;1.85;;;18.40;90.80;;;;;;5057553;28;20024;-84
2022/09/14 06:11:11;;;;;;;4.43;1.63;;;18.30;90.90;;;;;;5056431;28;20499;-83
2022/09/14 06:13:40;;;;;;;7.22;1.60;;;18.30;90.80;;;;;;5051565;28;20393;-85
2022/09/14 06:16:12;;;;;;;3.72;1.73;;;18.30;90.90;;;;;;5055303;28;20032;-85
2022/09/14 06:18:44;;;;;;;5.22;1.85;;;18.40;91.00;;;;;;5056309;28;20025;-84
2022/09/14 06:21:18;;;;;;;5.60;1.90;;;18.30;90.80;;;;;;5057149;28;20123;-85
2022/09/14 06:23:48;;;;;;;5.50;1.90;;;18.20;90.90;;;;;;5053659;28;20040;-85
2022/09/14 06:26:16;;;;;;;3.70;1.60;;;18.10;90.90;;;;;;5045714;28;20045;-84
2022/09/14 06:28:46;;;;;;;4.30;2.00;;;18.10;91.00;;;;;;5036845;28;20040;-84
2022/09/14 06:31:17;;;;;;;5.43;2.20;;;18.00;91.20;;;;;;5021050;28;20495;-85
2022/09/14 06:33:52;;;;;;;3.70;1.90;;;18.10;91.40;;;;;;5021259;28;20066;-85
2022/09/14 06:36:21;;;;;;;5.32;2.58;;;18.10;91.50;;;;;;5031291;28;20457;-84
2022/09/14 06:38:50;;;;;;;5.10;2.25;;;18.10;91.50;;;;;;5056687;28;20028;-85
2022/09/14 06:41:25;;;;;;;5.28;2.15;;;18.10;91.40;;;;;;5057340;28;20036;-85
2022/09/14 06:43:54;;;;;;;5.68;1.88;;;18.10;91.40;;;;;;5056588;28;20067;-84
2022/09/14 06:46:25;;;;;;;7.70;2.53;;;18.10;91.30;;;;;;5075140;28;20048;-84
2022/09/14 06:49:03;;;;;;;6.72;2.20;;;18.20;91.30;;;;;;5048056;28;20056;-84
2022/09/14 06:51:32;;;;;;;7.15;2.10;;;18.20;91.40;;;;;;5055456;28;20468;-86
2022/09/14 06:54:00;;;;;;;4.57;2.05;;;18.20;91.40;;;;;;5037001;28;20120;-85
2022/09/14 06:56:30;;;;;;;4.82;2.25;;;18.30;91.40;;;;;;5036748;28;20381;-83
2022/09/14 06:58:57;;;;;;;3.58;2.08;;;18.30;91.40;;;;;;5054200;28;20083;-85
2022/09/14 07:01:24;;;;;;;4.25;2.10;;;18.30;91.40;;;;;;5046056;28;20039;-84
2022/09/14 07:03:51;;;;;;;6.07;2.17;;;18.30;91.40;;;;;;5039647;28;20545;-84
2022/09/14 07:06:22;;;;;;;4.32;2.08;;;18.30;91.40;;;;;;5073548;28;20016;-84
2022/09/14 07:08:49;;;;;;;;;;;18.30;91.40;;;;;;5056039;28;20033;-85
2022/09/14 07:11:16;;;;;;;7.13;2.30;;;18.30;91.40;;;;;;5055248;28;19908;-85
2022/09/14 07:13:45;;;;;;;5.70;1.95;;;18.30;91.40;;;;;;5038933;28;20024;-84
2022/09/14 07:16:15;;;;;;;5.57;2.22;;;18.30;91.40;;;;;;5055825;28;20028;-85
2022/09/14 07:18:43;;;;;;;6.07;2.28;;;18.30;91.50;;;;;;5056852;28;20029;-84
2022/09/14 07:21:30;;;;;;;5.05;1.63;;;18.40;91.60;;;;;;5038952;28;20024;-85
2022/09/14 07:24:00;;;;;;;4.72;1.88;;;18.30;91.50;;;;;;5037180;28;20051;-83
2022/09/14 07:26:40;;;;;;;4.28;1.67;;;18.30;91.50;;;;;;5004753;28;20092;-85
2022/09/14 07:29:19;;;;;;;4.87;1.93;;;18.30;91.70;;;;;;5037024;28;20115;-84
2022/09/14 07:31:48;;;;;;;5.13;2.28;;;18.40;91.70;;;;;;5037590;28;20275;-85
2022/09/14 07:34:16;;;;;;;4.65;1.65;;;18.40;91.60;;;;;;5042187;28;20501;-85
2022/09/14 07:36:46;;;;;;;7.03;2.33;;;18.40;91.50;;;;;;5074910;28;20012;-84
2022/09/14 07:39:19;;;;;;;4.15;2.20;;;18.30;91.50;;;;;;5080129;28;20080;-85
2022/09/14 07:41:47;;;;;;;5.68;2.38;;;18.30;91.60;;;;;;5076797;28;20070;-84
2022/09/14 07:44:23;;;;;;;4.70;2.40;;;18.30;91.60;;;;;;5076717;28;20010;-85
2022/09/14 07:46:49;;;;;;;6.22;2.25;;;18.20;91.70;;;;;;5066629;28;20533;-83
2022/09/14 07:49:16;;;;;;;3.90;2.05;;;18.20;91.80;;;;;;5034731;28;20026;-85
2022/09/14 07:51:42;;;;;;;3.70;2.20;;;18.30;91.90;;;;;;5051748;28;20116;-83
2022/09/14 07:54:13;;;;;;;4.70;1.95;;;18.30;91.90;;;;;;5037490;28;20036;-84
2022/09/14 07:56:39;;;;;;;4.82;1.65;;;18.30;91.90;;;;;;5036888;28;20072;-85
2022/09/14 07:59:14;;;;;;;5.35;1.85;;;18.40;92.00;;;;;;5036713;28;20032;-83
2022/09/14 08:01:44;;;;;;;3.33;1.90;;;18.40;92.00;;;;;;5036375;28;20056;-83
2022/09/14 08:04:12;;;;;;;4.30;1.60;;;18.40;91.90;;;;;;5019671;28;20385;-85
2022/09/14 08:06:39;;;;;;;3.60;1.88;;;18.40;91.90;;;;;;5019694;28;20424;-84
2022/09/14 08:09:07;;;;;;;4.60;1.83;;;18.50;92.00;;;;;;5036281;28;20030;-84
2022/09/14 08:11:35;;;;;;;3.97;1.45;;;18.50;92.00;;;;;;5011393;28;20091;-85
2022/09/14 08:14:10;;;;;;;6.45;1.73;;;18.50;91.90;;;;;;5056737;28;20025;-85
2022/09/14 08:16:37;;;;;;;5.30;1.65;;;18.50;91.80;;;;;;5056866;28;20136;-85
2022/09/14 08:19:06;;;;;;;4.05;1.70;;;18.50;91.80;;;;;;5055652;28;20084;-84
2022/09/14 08:21:34;;;;;;;2.28;1.30;;;18.50;91.60;;;;;;5055697;28;20128;-84
2022/09/14 08:24:02;;;;;;;4.32;1.30;;;18.40;91.60;;;;;;5049933;28;20517;-84
2022/09/14 08:26:29;;;;;;;4.90;1.70;;;18.40;91.60;;;;;;5019869;28;20082;-85
2022/09/14 08:28:58;;;;;;;3.60;1.50;;;18.40;91.80;;;;;;5037213;28;20362;-84
2022/09/14 08:31:25;;;;;;;3.92;1.52;;;18.50;91.90;;;;;;5035595;28;20025;-84
2022/09/14 08:33:56;;;;;;;2.97;1.27;;;18.50;91.90;;;;;;5035671;28;20603;-85
2022/09/14 08:36:26;;;;;;;4.15;1.50;;;18.40;91.90;;;;;;5037075;28;20407;-84
2022/09/14 08:38:52;;;;;;;4.17;1.40;;;18.50;91.90;;;;;;5035384;28;20473;-84
2022/09/14 08:41:33;;;;;;;3.75;1.27;;;18.60;91.80;;;;;;5036343;28;20033;-85
2022/09/14 08:44:21;;;;;;;5.07;1.08;;;18.50;91.80;;;;;;5038998;28;20051;-86
2022/09/14 08:47:01;;;;;;;4.53;1.40;;;18.50;91.70;;;;;;5038446;28;20021;-84
2022/09/14 08:49:38;;;;;;;3.72;1.13;;;18.40;91.70;;;;;;5054897;28;20048;-85
2022/09/14 08:52:19;;;;;;;2.60;1.10;;;18.40;91.70;;;;;;5039023;28;20415;-85
2022/09/14 08:54:46;;;;;;;;;;;18.40;91.70;;;;;;5024911;28;20044;-84
2022/09/14 08:57:23;;;;;;;5.53;1.45;;;18.40;91.70;;;;;;5038837;28;19908;-85
2022/09/14 09:00:03;;;;;;;3.10;1.10;;;18.40;91.80;;;;;;5054461;28;20031;-84
2022/09/14 09:02:53;;;;;;;3.85;1.20;;;18.50;91.80;;;;;;5058182;28;20032;-84
2022/09/14 09:05:48;;;;;;;4.13;1.38;;;18.50;91.80;;;;;;5058849;28;20166;-85
2022/09/14 09:08:26;;;;;;;2.00;1.00;;;18.50;91.80;;;;;;5058417;28;20381;-84
2022/09/14 09:10:54;;;;;;;2.88;1.02;;;18.50;91.90;;;;;;5068380;28;20460;-84
2022/09/14 09:13:26;;;;;;;4.75;1.40;;;18.50;91.90;;;;;;5038461;28;20060;-84
2022/09/14 09:16:02;;;;;;;3.80;1.55;;;18.50;91.90;;;;;;5022160;28;20025;-85
2022/09/14 09:18:45;;;;;;;3.25;1.15;;;18.50;91.90;;;;;;5038028;28;20040;-85
2022/09/14 09:21:21;;;;;;;2.60;1.35;;;18.50;91.90;;;;;;5038324;28;20025;-84
2022/09/14 09:23:49;;;;;;;5.32;1.48;;;18.50;92.00;;;;;;5039760;28;20025;-84
2022/09/14 09:26:43;;;;;;;2.55;1.48;;;18.60;92.00;;;;;;5040351;28;20021;-82
2022/09/14 09:29:17;;;;;;;2.72;1.20;;;18.60;92.00;;;;;;5057191;28;20009;-85
2022/09/14 09:32:09;;;;;;;4.82;1.38;;;18.60;92.00;;;;;;5044983;28;20052;-84
2022/09/14 09:34:41;;;;;;;1.83;1.05;;;18.70;92.20;;;;;;5060283;28;20059;-85
2022/09/14 09:37:16;;;;;;;3.58;1.38;;;18.70;92.30;;;;;;5053855;28;20060;-84
2022/09/14 09:39:43;;;;;;;4.47;1.58;;;18.80;92.30;;;;;;5055608;28;20044;-85
2022/09/14 09:42:28;;;;;;;2.95;1.42;;;18.80;92.20;;;;;;5038681;28;20504;-84
2022/09/14 09:45:05;;;;;;;4.18;1.45;;;18.80;92.30;;;;;;5035047;28;20029;-85
2022/09/14 09:47:43;;;;;;;5.30;1.60;;;18.90;92.30;;;;;;5034274;28;20495;-85
2022/09/14 09:50:15;;;;;;;3.67;1.65;;;18.90;92.30;;;;;;5034053;28;20043;-84
2022/09/14 09:53:10;;;;;;;4.50;1.75;;;18.90;92.30;;;;;;5034082;28;20072;-85
2022/09/14 09:55:38;;;;;;;3.08;1.58;;;18.90;92.30;;;;;;5033675;28;20029;-84
2022/09/14 09:58:43;;;;;;;3.63;1.50;;;18.80;92.30;;;;;;5033826;28;20029;-85
2022/09/14 10:01:25;;;;;;;3.17;1.58;;;18.80;92.40;;;;;;4976138;28;20023;-84
2022/09/14 10:04:27;;;;;;;3.45;1.40;;;18.80;92.40;;;;;;5028798;28;20042;-83
2022/09/14 10:06:56;;;;;;;3.97;1.60;;;18.80;92.30;;;;;;5034535;28;20358;-85
2022/09/14 10:09:27;;;;;;;3.88;1.48;;;18.80;92.30;;;;;;5017523;28;20064;-85
2022/09/14 10:12:01;;;;;;;3.65;1.50;;;18.90;92.30;;;;;;5033338;28;20033;-85
2022/09/14 10:14:32;;;;;;;3.17;1.70;;;18.90;92.20;;;;;;5035428;28;20051;-85
2022/09/14 10:17:19;;;;;;;6.45;1.88;;;18.80;92.10;;;;;;5033977;28;20025;-84
2022/09/14 10:19:51;;;;;;;3.83;1.70;;;18.80;92.10;;;;;;5030823;28;20029;-84
2022/09/14 10:22:37;;;;;;;3.05;1.90;;;18.80;92.20;;;;;;5033846;28;20492;-85
2022/09/14 10:25:19;;;;;;;7.82;2.03;;;18.80;92.20;;;;;;5034195;28;20040;-84
2022/09/14 10:28:07;;;;;;;3.25;1.80;;;18.80;92.20;;;;;;5049227;28;20036;-85
2022/09/14 10:30:48;;;;;;;3.25;1.75;;;18.90;92.30;;;;;;5053649;28;20021;-84
2022/09/14 10:33:20;;;;;;;5.78;2.00;;;18.90;92.20;;;;;;5053917;28;20059;-84
2022/09/14 10:36:18;;;;;;;4.10;2.05;;;18.80;92.20;;;;;;5053768;28;20361;-86
2022/09/14 10:38:57;;;;;;;4.18;1.90;;;18.80;92.20;;;;;;5046668;28;20036;-83
2022/09/14 10:41:23;;;;;;;5.05;2.42;;;18.90;92.30;;;;;;5053173;28;20137;-84
2022/09/14 10:44:18;;;;;;;4.22;2.22;;;19.00;92.30;;;;;;5056016;28;20036;-85
2022/09/14 10:47:02;;;;;;;3.85;2.00;;;19.00;92.40;;;;;;5056668;28;20484;-85
2022/09/14 10:50:10;;;;;;;3.65;2.17;;;19.00;92.30;;;;;;5056486;28;20084;-82
2022/09/14 10:53:10;;;;;;;4.63;2.17;;;19.00;92.30;;;;;;5057911;28;20024;-84
2022/09/14 10:56:10;;;;;;;;;;;;;;;;;;;;;
2022/09/14 10:59:07;;;;;;;3.45;2.03;;;19.10;92.30;;;;;;5054838;28;20031;-83
2022/09/14 11:02:23;;;;;;;5.28;2.58;;;19.10;92.20;;;;;;5053030;28;20153;-85
2022/09/14 11:04:52;;;;;;;4.28;2.10;;;19.10;92.20;;;;;;5037056;28;20541;-84
2022/09/14 11:08:03;;;;;;;3.17;2.17;;;19.10;92.20;;;;;;5054778;28;20029;-85
2022/09/14 11:11:05;;;;;;;6.85;2.17;;;19.10;92.10;;;;;;4957809;28;20054;-84
2022/09/14 11:13:49;;;;;;;4.32;2.00;;;19.10;92.20;;;;;;4958135;28;20115;-84
2022/09/14 11:16:46;;;;;;;3.63;2.35;;;19.10;92.20;;;;;;5033697;28;20033;-84
2022/09/14 11:20:04;;;;;;;4.60;2.50;;;19.00;92.10;;;;;;5049445;28;20031;-85
2022/09/14 11:22:41;;;;;;;3.05;2.17;;;19.10;92.20;;;;;;5034989;28;20047;-85
2022/09/14 11:25:45;;;;;;;4.00;2.10;;;19.10;92.20;;;;;;5082933;28;20004;-85
2022/09/14 11:28:32;;;;;;;3.58;2.40;;;19.10;92.10;;;;;;5080550;28;20051;-84
2022/09/14 11:31:34;;;;;;;5.93;2.40;;;19.10;92.10;;;;;;5077342;28;20047;-85
2022/09/14 11:34:17;;;;;;;5.57;2.40;;;19.10;92.10;;;;;;5064568;28;20016;-85
2022/09/14 11:36:48;;;;;;;5.68;2.08;;;19.10;92.10;;;;;;5060227;28;20024;-83
2022/09/14 11:39:44;;;;;;;3.30;2.30;;;19.20;92.10;;;;;;5060002;28;20468;-85
2022/09/14 11:42:42;;;;;;;4.43;2.17;;;19.10;92.10;;;;;;5044979;28;20130;-82
2022/09/14 11:45:30;;;;;;;5.30;2.42;;;19.20;92.10;;;;;;5049964;28;20119;-84
2022/09/14 11:48:11;;;;;;;7.28;2.53;;;19.20;92.20;;;;;;5039853;28;20411;-84
2022/09/14 11:50:43;;;;;;;2.97;2.33;;;19.30;92.10;;;;;;5039673;28;20465;-85
2022/09/14 11:53:17;;;;;;;3.17;1.98;;;19.20;91.90;;;;;;5040639;28;20373;-83
2022/09/14 11:55:51;;;;;;;5.45;2.33;;;19.30;91.80;;;;;;5039732;28;20028;-84
2022/09/14 11:58:21;;;;;;;5.10;2.50;;;19.30;91.70;;;;;;5040223;28;20044;-84
2022/09/14 12:01:27;;;;;;;4.28;1.98;;;19.20;91.80;;;;;;5039797;28;20110;-84
2022/09/14 12:03:58;;;;;;;3.90;2.33;;;19.20;91.70;;;;;;5059096;28;20044;-85
2022/09/14 12:06:33;;;;;;;3.45;2.35;;;19.30;91.70;;;;;;5059645;28;20111;-85
2022/09/14 12:09:19;;;;;;;4.30;2.10;;;19.30;91.60;;;;;;5059644;28;20029;-85
2022/09/14 12:11:47;;;;;;;5.28;2.20;;;19.30;91.50;;;;;;5059032;28;20077;-84
2022/09/14 12:14:48;;;;;;;3.10;1.90;;;19.20;91.60;;;;;;5052365;28;20434;-83
2022/09/14 12:17:32;;;;;;;3.90;2.28;;;19.30;91.80;;;;;;5039329;28;20081;-84
2022/09/14 12:20:55;;;;;;;4.88;1.92;;;19.30;91.70;;;;;;5056837;28;20059;-85
2022/09/14 12:23:50;;;;;;;6.18;2.05;;;19.40;91.70;;;;;;4967035;28;20026;-84
2022/09/14 12:26:30;;;;;;;3.10;2.20;;;19.50;91.60;;;;;;5059046;28;20040;-84
2022/09/14 12:29:21;;;;;;;5.53;2.63;;;19.50;91.40;;;;;;5059377;28;20032;-84
2022/09/14 12:31:53;;;;;;;;;;;19.50;91.20;;;;;;5058321;28;20036;-83
2022/09/14 12:34:30;;;;;;;5.15;2.55;;;19.50;91.30;;;;;;5048205;28;19904;-84
2022/09/14 12:37:01;;;;;;;4.93;2.58;;;19.60;91.50;;;;;;5039235;28;20025;-83
2022/09/14 12:39:29;;;;;;;6.93;2.55;;;19.60;91.50;;;;;;5038972;28;20021;-85
2022/09/14 12:41:55;;;;;;;4.03;2.38;;;19.70;91.50;;;;;;5038379;28;20052;-85
2022/09/14 12:44:38;;;;;;;4.97;3.20;;;19.60;91.20;;;;;;5044224;28;20024;-85
2022/09/14 12:47:23;;;;;;;5.25;2.28;;;19.70;91.00;;;;;;5075515;28;20028;-86
2022/09/14 12:49:50;;;;;;;4.90;2.35;;;19.70;90.90;;;;;;5058501;28;20036;-86
2022/09/14 12:52:59;;;;;;;5.57;2.47;;;19.70;90.90;;;;;;5058032;28;20021;-85
2022/09/14 12:55:45;;;;;;;4.63;2.67;;;19.70;90.90;;;;;;5047227;28;20033;-85
2022/09/14 12:58:31;;;;;;;4.60;2.45;;;19.80;91.10;;;;;;5038905;28;20083;-84
2022/09/14 13:01:25;;;;;;;5.63;2.35;;;19.80;90.90;;;;;;5038420;28;20079;-85
2022/09/14 13:03:57;;;;;;;5.35;2.47;;;19.80;90.90;;;;;;5038301;28;20114;-84
2022/09/14 13:06:32;;;;;;;5.68;2.35;;;19.80;90.70;;;;;;5022063;28;20055;-84
2022/09/14 13:09:00;;;;;;;4.00;2.20;;;19.80;90.70;;;;;;5038137;28;20048;-84
2022/09/14 13:11:39;;;;;;;5.38;2.35;;;19.80;90.60;;;;;;5056169;28;20025;-84
2022/09/14 13:14:18;;;;;;;3.53;2.35;;;19.80;90.60;;;;;;5038159;28;20021;-84
2022/09/14 13:16:48;;;;;;;6.55;2.22;;;19.80;90.40;;;;;;5040944;28;20036;-84
2022/09/14 13:19:41;;;;;;;3.30;1.85;;;19.80;90.40;;;;;;5034521;28;20024;-84
2022/09/14 13:22:21;;;;;;;6.05;2.60;;;19.80;90.50;;;;;;5087386;28;20075;-83
2022/09/14 13:24:48;;;;;;;3.60;2.00;;;19.80;90.40;;;;;;5075693;28;20089;-86
2022/09/14 13:27:32;;;;;;;3.75;2.40;;;19.80;90.50;;;;;;5076712;28;20092;-85
2022/09/14 13:30:07;;;;;;;4.70;2.08;;;19.80;90.50;;;;;;5078749;28;20021;-84
2022/09/14 13:32:36;;;;;;;2.85;1.98;;;19.80;90.50;;;;;;5063730;28;20460;-84
2022/09/14 13:35:25;;;;;;;4.13;2.05;;;19.80;90.60;;;;;;5052646;28;20032;-84
2022/09/14 13:37:59;;;;;;;3.53;1.80;;;19.90;90.50;;;;;;5056380;28;20445;-84
2022/09/14 13:40:29;;;;;;;3.65;2.15;;;19.90;90.30;;;;;;5057928;28;20028;-84